Details From RJTT - Rjtt-tokyo Haneda
To ROAH - Naha
Flight Number -
Tags Generated
Created
Modified
Stats Distance 839 nm / 1,555 km
Max Altitude 0 ft / 0 m
Waypoints 3
Social Downloads 1
Likes 0
Share VATSIM

Download

Looking for another format? Having issues loading an existing format? Contact us
Advertisement - Login to hide

Notes

Generated

Route

RJTT GADEK ROAH

ID Type Via Altitude Latitude Longitude Leg Dist Tot Dist Heading (true) Name
O RJTT APT - 0 ft / 0 m 35.56747˚ 139.77712˚ - 0 nm - -
GADEK FIX - 0 ft / 0 m 26.54814˚ 128.02703˚ 810 nm 810 nm 231° / 225° -
O ROAH APT - 0 ft / 0 m 26.20934˚ 127.64523˚ 28 nm 839 nm 225° / 225° -

Altitude Profile

Advertisement - Login to hide

Weather


0- 5 10 15 20 25 30 35+ Temperature / ° C

Clouds and Precipitation
Forecast for 2017-12-18 00:00 UTC. Updated 4 minutes ago

Ground ~20,000 ft ~40,000 ft Winds

RJTT

Details ICAO RJTT (HND)
Name Tokyo Haneda Intl
Region Japan
Timezone Asia/Tokyo (UTC+9.0)
Stats Elevation 20 ft / 6 m (AMSL)
Location 35.548254° 139.788554°
Runways 4
Magnetic Variation 7.425° W

METAR

RJTT 172300Z 30004KT 9999 FEW030 04/M06 Q1024 NOSIG

Decode

TAF

TAF RJTT 171705Z 1718/1900 02010KT 9999 FEW030 SCT050 BECMG 1800/1802 14006KT BECMG 1809/1812 34006KT

Decode

Departure Runways

ID Width Length Bearing (true) Bearing (mag) Surface Threshold Offset Overrun Length
04 200 ft / 61 m 8,211 ft / 2,503 m 34.90° 42.33° Asphalt 0 ft / 0 m 200 ft / 61 m
05 197 ft / 60 m 8,206 ft / 2,501 m 42.44° 49.87° Asphalt 0 ft / 0 m 197 ft / 60 m
16L 200 ft / 61 m 9,856 ft / 3,004 m 150.00° 157.43° Asphalt 0 ft / 0 m 200 ft / 61 m
16R 200 ft / 61 m 9,986 ft / 3,044 m 150.01° 157.44° Asphalt 131 ft / 40 m 0 ft / 0 m
22 200 ft / 61 m 8,211 ft / 2,503 m 214.90° 222.33° Asphalt 0 ft / 0 m 200 ft / 61 m
23 197 ft / 60 m 8,206 ft / 2,501 m 222.45° 229.88° Asphalt 0 ft / 0 m 197 ft / 60 m
34L 200 ft / 61 m 9,986 ft / 3,044 m 330.02° 337.45° Asphalt 0 ft / 0 m 197 ft / 60 m
34R 200 ft / 61 m 9,856 ft / 3,004 m 330.01° 337.44° Asphalt 0 ft / 0 m 200 ft / 61 m

ROAH

Details ICAO ROAH (OKA)
Name NAHA
Region Japan
Timezone Asia/Tokyo (UTC+9.0)
Stats Elevation 12 ft / 4 m (AMSL)
Location 26.195815° 127.645868°
Runways 1
Magnetic Variation 5.230° W

METAR

ROAH 172300Z 05010KT 020V080 9999 FEW030 BKN060 16/09 Q1024

Decode

TAF

TAF ROAH 171706Z 1718/1900 05011KT 9999 FEW035 BKN045

Decode

Destination Runways

ID Width Length Bearing (true) Bearing (mag) Surface Threshold Offset Overrun Length
18 150 ft / 46 m 9,881 ft / 3,012 m 177.59° 182.82° Asphalt 138 ft / 42 m 640 ft / 195 m
36 150 ft / 46 m 9,881 ft / 3,012 m 357.59° 2.82° Asphalt 0 ft / 0 m 509 ft / 155 m

Approach Navaids

Runway Type Ident Frequency Range Bearing (true) Bearing (mag) Slope Elevation
36 Localiser IOK 110.30 MHz 18 nm / 33 km 356.78° 2.01° - 52 ft / 16 m (AMSL)
36 Glidescope IOK 110.30 MHz 10 nm / 19 km 357.59° 2.82° 2.75° 52 ft / 16 m (AMSL)
36 DME IOK 110.30 MHz 18 nm / 33 km - - - 31 ft / 9 m (AMSL)

Popular Alternatives